sensor_id;sensor_type;location;lat;lon;timestamp;temperature;humidity
38973;DHT22;25333;50.762;4.470;2023-08-20T00:01:25;18.90;99.90
38973;DHT22;25333;50.762;4.470;2023-08-20T00:03:51;19.00;99.90
38973;DHT22;25333;50.762;4.470;2023-08-20T00:06:18;19.10;99.90
38973;DHT22;25333;50.762;4.470;2023-08-20T00:08:45;19.00;99.90
38973;DHT22;25333;50.762;4.470;2023-08-20T00:11:12;18.90;99.90
38973;DHT22;25333;50.762;4.470;2023-08-20T00:13:37;18.80;99.90
38973;DHT22;25333;50.762;4.470;2023-08-20T00:16:03;18.90;99.90
38973;DHT22;25333;50.762;4.470;2023-08-20T00:18:29;18.80;99.90
38973;DHT22;25333;50.762;4.470;2023-08-20T00:20:55;18.70;99.90
38973;DHT22;25333;50.762;4.470;2023-08-20T00:23:22;18.70;99.90
38973;DHT22;25333;50.762;4.470;2023-08-20T00:25:48;18.60;99.90
38973;DHT22;25333;50.762;4.470;2023-08-20T00:28:14;18.70;99.90
38973;DHT22;25333;50.762;4.470;2023-08-20T00:30:39;18.60;99.90
38973;DHT22;25333;50.762;4.470;2023-08-20T00:33:05;18.70;99.90
38973;DHT22;25333;50.762;4.470;2023-08-20T00:35:31;18.70;99.90
38973;DHT22;25333;50.762;4.470;2023-08-20T00:37:57;18.70;99.90
38973;DHT22;25333;50.762;4.470;2023-08-20T00:40:22;18.60;99.90
38973;DHT22;25333;50.762;4.470;2023-08-20T00:42:48;18.40;99.90
38973;DHT22;25333;50.762;4.470;2023-08-20T00:45:15;18.40;99.90
38973;DHT22;25333;50.762;4.470;2023-08-20T00:47:42;18.30;99.90
38973;DHT22;25333;50.762;4.470;2023-08-20T00:50:08;18.10;99.90
38973;DHT22;25333;50.762;4.470;2023-08-20T00:52:34;18.10;99.90
38973;DHT22;25333;50.762;4.470;2023-08-20T00:55:02;18.20;99.90
38973;DHT22;25333;50.762;4.470;2023-08-20T00:57:28;18.30;99.90
38973;DHT22;25333;50.762;4.470;2023-08-20T00:59:55;18.30;99.90
38973;DHT22;25333;50.762;4.470;2023-08-20T01:02:21;18.40;99.90
38973;DHT22;25333;50.762;4.470;2023-08-20T01:04:48;18.50;99.90
38973;DHT22;25333;50.762;4.470;2023-08-20T01:07:36;18.50;99.90
38973;DHT22;25333;50.762;4.470;2023-08-20T01:12:31;18.40;99.90
38973;DHT22;25333;50.762;4.470;2023-08-20T01:14:57;18.40;99.90
38973;DHT22;25333;50.762;4.470;2023-08-20T01:17:22;18.40;99.90
38973;DHT22;25333;50.762;4.470;2023-08-20T01:19:48;18.30;99.90
38973;DHT22;25333;50.762;4.470;2023-08-20T01:25:30;18.30;99.90
38973;DHT22;25333;50.762;4.470;2023-08-20T01:28:23;18.50;99.90
38973;DHT22;25333;50.762;4.470;2023-08-20T01:30:49;18.60;99.90
38973;DHT22;25333;50.762;4.470;2023-08-20T01:33:16;18.60;99.90
38973;DHT22;25333;50.762;4.470;2023-08-20T01:35:42;18.70;99.90
38973;DHT22;25333;50.762;4.470;2023-08-20T01:38:08;18.70;99.90
38973;DHT22;25333;50.762;4.470;2023-08-20T01:40:34;18.80;99.90
38973;DHT22;25333;50.762;4.470;2023-08-20T01:42:59;18.80;99.90
38973;DHT22;25333;50.762;4.470;2023-08-20T01:45:25;18.90;99.90
38973;DHT22;25333;50.762;4.470;2023-08-20T01:47:52;19.00;99.90
38973;DHT22;25333;50.762;4.470;2023-08-20T01:50:17;19.00;99.90
38973;DHT22;25333;50.762;4.470;2023-08-20T01:52:43;19.00;99.90
38973;DHT22;25333;50.762;4.470;2023-08-20T01:55:09;19.00;99.90
38973;DHT22;25333;50.762;4.470;2023-08-20T01:57:35;18.90;99.90
38973;DHT22;25333;50.762;4.470;2023-08-20T02:00:01;18.80;99.90
38973;DHT22;25333;50.762;4.470;2023-08-20T02:02:26;18.80;99.90
38973;DHT22;25333;50.762;4.470;2023-08-20T02:04:52;18.80;99.90
38973;DHT22;25333;50.762;4.470;2023-08-20T02:07:18;18.90;99.90
38973;DHT22;25333;50.762;4.470;2023-08-20T02:09:43;19.00;99.90
38973;DHT22;25333;50.762;4.470;2023-08-20T02:12:09;18.80;99.90
38973;DHT22;25333;50.762;4.470;2023-08-20T02:14:35;18.80;99.90
38973;DHT22;25333;50.762;4.470;2023-08-20T02:17:01;18.80;99.90
38973;DHT22;25333;50.762;4.470;2023-08-20T02:19:27;18.90;99.90
38973;DHT22;25333;50.762;4.470;2023-08-20T02:21:53;19.00;99.90
38973;DHT22;25333;50.762;4.470;2023-08-20T02:24:19;18.90;99.90
38973;DHT22;25333;50.762;4.470;2023-08-20T02:26:45;18.90;99.90
38973;DHT22;25333;50.762;4.470;2023-08-20T02:29:10;19.00;99.90
38973;DHT22;25333;50.762;4.470;2023-08-20T02:31:36;18.90;99.90
38973;DHT22;25333;50.762;4.470;2023-08-20T02:34:02;18.80;99.90
38973;DHT22;25333;50.762;4.470;2023-08-20T02:36:28;18.70;99.90
38973;DHT22;25333;50.762;4.470;2023-08-20T02:38:53;18.70;99.90
38973;DHT22;25333;50.762;4.470;2023-08-20T02:41:19;18.70;99.90
38973;DHT22;25333;50.762;4.470;2023-08-20T02:43:45;18.60;99.90
38973;DHT22;25333;50.762;4.470;2023-08-20T02:46:11;18.60;99.90
38973;DHT22;25333;50.762;4.470;2023-08-20T02:48:36;18.70;99.90
38973;DHT22;25333;50.762;4.470;2023-08-20T02:51:02;18.70;99.90
38973;DHT22;25333;50.762;4.470;2023-08-20T02:53:29;18.60;99.90
38973;DHT22;25333;50.762;4.470;2023-08-20T02:55:55;18.50;99.90
38973;DHT22;25333;50.762;4.470;2023-08-20T02:58:22;18.40;99.90
38973;DHT22;25333;50.762;4.470;2023-08-20T03:00:47;18.30;99.90
38973;DHT22;25333;50.762;4.470;2023-08-20T03:03:13;18.20;99.90
38973;DHT22;25333;50.762;4.470;2023-08-20T03:05:39;18.00;99.90
38973;DHT22;25333;50.762;4.470;2023-08-20T03:08:05;18.00;99.90
38973;DHT22;25333;50.762;4.470;2023-08-20T03:10:32;18.10;99.90
38973;DHT22;25333;50.762;4.470;2023-08-20T03:13:01;18.10;99.90
38973;DHT22;25333;50.762;4.470;2023-08-20T03:15:28;18.10;99.90
38973;DHT22;25333;50.762;4.470;2023-08-20T03:17:54;18.10;99.90
38973;DHT22;25333;50.762;4.470;2023-08-20T03:20:20;18.00;99.90
38973;DHT22;25333;50.762;4.470;2023-08-20T03:22:46;17.90;99.90
38973;DHT22;25333;50.762;4.470;2023-08-20T03:25:11;17.90;99.90
38973;DHT22;25333;50.762;4.470;2023-08-20T03:27:37;17.80;99.90
38973;DHT22;25333;50.762;4.470;2023-08-20T03:30:04;17.80;99.90
38973;DHT22;25333;50.762;4.470;2023-08-20T03:32:30;17.80;99.90
38973;DHT22;25333;50.762;4.470;2023-08-20T03:34:55;17.70;99.90
38973;DHT22;25333;50.762;4.470;2023-08-20T03:37:22;17.80;99.90
38973;DHT22;25333;50.762;4.470;2023-08-20T03:39:48;17.60;99.90
38973;DHT22;25333;50.762;4.470;2023-08-20T03:42:13;17.50;99.90
38973;DHT22;25333;50.762;4.470;2023-08-20T03:44:39;17.50;99.90
38973;DHT22;25333;50.762;4.470;2023-08-20T03:47:05;17.50;99.90
38973;DHT22;25333;50.762;4.470;2023-08-20T03:49:30;17.60;99.90
38973;DHT22;25333;50.762;4.470;2023-08-20T03:51:56;17.50;99.90
38973;DHT22;25333;50.762;4.470;2023-08-20T03:54:22;17.50;99.90
38973;DHT22;25333;50.762;4.470;2023-08-20T03:56:47;17.50;99.90
38973;DHT22;25333;50.762;4.470;2023-08-20T03:59:13;17.40;99.90
38973;DHT22;25333;50.762;4.470;2023-08-20T04:01:39;17.40;99.90
38973;DHT22;25333;50.762;4.470;2023-08-20T04:04:04;17.50;99.90
38973;DHT22;25333;50.762;4.470;2023-08-20T04:06:30;17.50;99.90
38973;DHT22;25333;50.762;4.470;2023-08-20T04:08:56;17.30;99.90
38973;DHT22;25333;50.762;4.470;2023-08-20T04:11:21;17.10;99.90
38973;DHT22;25333;50.762;4.470;2023-08-20T04:13:47;17.10;99.90
38973;DHT22;25333;50.762;4.470;2023-08-20T04:16:13;17.10;99.90
38973;DHT22;25333;50.762;4.470;2023-08-20T04:18:39;16.90;99.90
38973;DHT22;25333;50.762;4.470;2023-08-20T04:21:05;16.70;99.90
38973;DHT22;25333;50.762;4.470;2023-08-20T04:23:31;16.70;99.90
38973;DHT22;25333;50.762;4.470;2023-08-20T04:25:56;16.80;99.90
38973;DHT22;25333;50.762;4.470;2023-08-20T04:28:22;17.00;99.90
38973;DHT22;25333;50.762;4.470;2023-08-20T04:30:48;16.90;99.90
38973;DHT22;25333;50.762;4.470;2023-08-20T04:33:14;16.70;99.90
38973;DHT22;25333;50.762;4.470;2023-08-20T04:35:40;16.80;99.90
38973;DHT22;25333;50.762;4.470;2023-08-20T04:38:06;16.80;99.90
38973;DHT22;25333;50.762;4.470;2023-08-20T04:40:33;16.80;99.90
38973;DHT22;25333;50.762;4.470;2023-08-20T04:42:59;16.70;99.90
38973;DHT22;25333;50.762;4.470;2023-08-20T04:45:24;16.60;99.90
38973;DHT22;25333;50.762;4.470;2023-08-20T04:47:50;16.50;99.90
38973;DHT22;25333;50.762;4.470;2023-08-20T04:50:15;16.50;99.90
38973;DHT22;25333;50.762;4.470;2023-08-20T04:52:41;16.70;99.90
38973;DHT22;25333;50.762;4.470;2023-08-20T04:55:07;16.70;99.90
38973;DHT22;25333;50.762;4.470;2023-08-20T04:57:33;16.60;99.90
38973;DHT22;25333;50.762;4.470;2023-08-20T04:59:59;16.60;99.90
38973;DHT22;25333;50.762;4.470;2023-08-20T05:02:25;16.60;99.90
38973;DHT22;25333;50.762;4.470;2023-08-20T05:04:51;16.70;99.90
38973;DHT22;25333;50.762;4.470;2023-08-20T05:07:17;16.70;99.90
38973;DHT22;25333;50.762;4.470;2023-08-20T05:09:43;16.70;99.90
38973;DHT22;25333;50.762;4.470;2023-08-20T05:12:08;16.70;99.90
38973;DHT22;25333;50.762;4.470;2023-08-20T05:14:34;16.50;99.90
38973;DHT22;25333;50.762;4.470;2023-08-20T05:17:00;16.40;99.90
38973;DHT22;25333;50.762;4.470;2023-08-20T05:19:26;16.50;99.90
38973;DHT22;25333;50.762;4.470;2023-08-20T05:21:51;16.60;99.90
38973;DHT22;25333;50.762;4.470;2023-08-20T05:24:21;16.80;99.90
38973;DHT22;25333;50.762;4.470;2023-08-20T05:26:49;16.80;99.90
38973;DHT22;25333;50.762;4.470;2023-08-20T05:29:15;16.70;99.90
38973;DHT22;25333;50.762;4.470;2023-08-20T05:31:40;16.60;99.90
38973;DHT22;25333;50.762;4.470;2023-08-20T05:34:06;16.60;99.90
38973;DHT22;25333;50.762;4.470;2023-08-20T05:36:32;16.70;99.90
38973;DHT22;25333;50.762;4.470;2023-08-20T05:38:57;16.80;99.90
38973;DHT22;25333;50.762;4.470;2023-08-20T05:41:23;16.90;99.90
38973;DHT22;25333;50.762;4.470;2023-08-20T05:43:49;16.90;99.90
38973;DHT22;25333;50.762;4.470;2023-08-20T05:46:14;17.00;99.90
38973;DHT22;25333;50.762;4.470;2023-08-20T05:48:40;16.90;99.90
38973;DHT22;25333;50.762;4.470;2023-08-20T05:51:05;16.90;99.90
38973;DHT22;25333;50.762;4.470;2023-08-20T05:53:31;17.00;99.90
38973;DHT22;25333;50.762;4.470;2023-08-20T05:55:57;17.10;99.90
38973;DHT22;25333;50.762;4.470;2023-08-20T05:58:22;17.10;99.90
38973;DHT22;25333;50.762;4.470;2023-08-20T06:00:48;17.20;99.90
38973;DHT22;25333;50.762;4.470;2023-08-20T06:03:14;17.30;99.90
38973;DHT22;25333;50.762;4.470;2023-08-20T06:05:39;17.30;99.90
38973;DHT22;25333;50.762;4.470;2023-08-20T06:08:05;17.30;99.90
38973;DHT22;25333;50.762;4.470;2023-08-20T06:10:31;17.40;99.90
38973;DHT22;25333;50.762;4.470;2023-08-20T06:12:57;17.50;99.90
38973;DHT22;25333;50.762;4.470;2023-08-20T06:15:22;17.60;99.90
38973;DHT22;25333;50.762;4.470;2023-08-20T06:17:48;17.80;99.90
38973;DHT22;25333;50.762;4.470;2023-08-20T06:20:14;17.90;99.90
38973;DHT22;25333;50.762;4.470;2023-08-20T06:22:39;17.90;99.90
38973;DHT22;25333;50.762;4.470;2023-08-20T06:25:05;17.90;99.90
38973;DHT22;25333;50.762;4.470;2023-08-20T06:27:31;18.00;99.90
38973;DHT22;25333;50.762;4.470;2023-08-20T06:29:57;18.00;99.90
38973;DHT22;25333;50.762;4.470;2023-08-20T06:32:23;18.30;99.90
38973;DHT22;25333;50.762;4.470;2023-08-20T06:34:49;18.50;99.90
38973;DHT22;25333;50.762;4.470;2023-08-20T06:37:15;18.70;99.90
38973;DHT22;25333;50.762;4.470;2023-08-20T06:39:40;18.90;99.90
38973;DHT22;25333;50.762;4.470;2023-08-20T06:42:06;19.10;99.90
38973;DHT22;25333;50.762;4.470;2023-08-20T06:44:32;19.30;99.90
38973;DHT22;25333;50.762;4.470;2023-08-20T06:46:57;19.30;99.90
38973;DHT22;25333;50.762;4.470;2023-08-20T06:49:23;19.40;99.90
38973;DHT22;25333;50.762;4.470;2023-08-20T06:51:49;19.50;99.90
38973;DHT22;25333;50.762;4.470;2023-08-20T06:54:15;19.60;99.90
38973;DHT22;25333;50.762;4.470;2023-08-20T06:56:41;19.70;99.90
38973;DHT22;25333;50.762;4.470;2023-08-20T06:59:07;19.80;99.90
38973;DHT22;25333;50.762;4.470;2023-08-20T07:01:33;19.90;99.90
38973;DHT22;25333;50.762;4.470;2023-08-20T07:03:59;20.00;99.90
38973;DHT22;25333;50.762;4.470;2023-08-20T07:06:25;20.10;99.90
38973;DHT22;25333;50.762;4.470;2023-08-20T07:08:50;20.20;99.90
38973;DHT22;25333;50.762;4.470;2023-08-20T07:11:16;20.30;99.90
38973;DHT22;25333;50.762;4.470;2023-08-20T07:13:42;20.30;99.90
38973;DHT22;25333;50.762;4.470;2023-08-20T07:16:08;20.40;99.90
38973;DHT22;25333;50.762;4.470;2023-08-20T07:18:34;20.50;99.90
38973;DHT22;25333;50.762;4.470;2023-08-20T07:20:59;20.50;99.90
38973;DHT22;25333;50.762;4.470;2023-08-20T07:23:25;20.50;99.90
38973;DHT22;25333;50.762;4.470;2023-08-20T07:25:51;20.50;99.90
38973;DHT22;25333;50.762;4.470;2023-08-20T07:28:19;20.70;99.90
38973;DHT22;25333;50.762;4.470;2023-08-20T07:31:13;20.60;99.90
38973;DHT22;25333;50.762;4.470;2023-08-20T07:33:39;20.60;99.90
38973;DHT22;25333;50.762;4.470;2023-08-20T07:36:05;20.60;99.90
38973;DHT22;25333;50.762;4.470;2023-08-20T07:38:30;20.60;99.90
38973;DHT22;25333;50.762;4.470;2023-08-20T07:40:56;20.70;99.90
38973;DHT22;25333;50.762;4.470;2023-08-20T07:43:22;20.80;99.90
38973;DHT22;25333;50.762;4.470;2023-08-20T07:45:47;20.90;99.90
38973;DHT22;25333;50.762;4.470;2023-08-20T07:48:13;21.10;99.90
38973;DHT22;25333;50.762;4.470;2023-08-20T07:50:39;21.20;99.90
38973;DHT22;25333;50.762;4.470;2023-08-20T07:53:05;21.30;99.90
38973;DHT22;25333;50.762;4.470;2023-08-20T07:55:30;21.40;99.90
38973;DHT22;25333;50.762;4.470;2023-08-20T07:57:56;21.50;99.90
38973;DHT22;25333;50.762;4.470;2023-08-20T08:00:22;21.50;99.90
38973;DHT22;25333;50.762;4.470;2023-08-20T08:02:48;21.60;99.90
38973;DHT22;25333;50.762;4.470;2023-08-20T08:05:13;21.70;99.90
38973;DHT22;25333;50.762;4.470;2023-08-20T08:07:39;21.80;99.90
38973;DHT22;25333;50.762;4.470;2023-08-20T08:10:05;21.90;99.90
38973;DHT22;25333;50.762;4.470;2023-08-20T08:12:31;22.00;99.90
38973;DHT22;25333;50.762;4.470;2023-08-20T08:14:57;21.80;99.60
38973;DHT22;25333;50.762;4.470;2023-08-20T08:17:23;21.70;99.90
38973;DHT22;25333;50.762;4.470;2023-08-20T08:19:48;21.70;99.90
38973;DHT22;25333;50.762;4.470;2023-08-20T08:22:14;22.00;99.90
38973;DHT22;25333;50.762;4.470;2023-08-20T08:24:40;22.10;99.90
38973;DHT22;25333;50.762;4.470;2023-08-20T08:27:07;22.20;99.90
38973;DHT22;25333;50.762;4.470;2023-08-20T08:29:35;22.30;99.90
38973;DHT22;25333;50.762;4.470;2023-08-20T08:32:01;22.30;99.90
38973;DHT22;25333;50.762;4.470;2023-08-20T08:34:27;22.40;99.90
38973;DHT22;25333;50.762;4.470;2023-08-20T08:36:52;22.50;99.90
38973;DHT22;25333;50.762;4.470;2023-08-20T08:39:20;22.60;99.90
38973;DHT22;25333;50.762;4.470;2023-08-20T08:42:01;22.60;99.90
38973;DHT22;25333;50.762;4.470;2023-08-20T08:44:32;22.40;99.30
38973;DHT22;25333;50.762;4.470;2023-08-20T08:46:59;22.30;99.20
38973;DHT22;25333;50.762;4.470;2023-08-20T08:49:25;22.40;99.60
38973;DHT22;25333;50.762;4.470;2023-08-20T08:51:53;22.60;99.90
38973;DHT22;25333;50.762;4.470;2023-08-20T08:54:21;22.80;99.70
38973;DHT22;25333;50.762;4.470;2023-08-20T08:56:47;22.90;99.50
38973;DHT22;25333;50.762;4.470;2023-08-20T08:59:12;23.10;99.50
38973;DHT22;25333;50.762;4.470;2023-08-20T09:01:41;23.20;99.50
38973;DHT22;25333;50.762;4.470;2023-08-20T09:04:27;23.20;98.70
38973;DHT22;25333;50.762;4.470;2023-08-20T09:06:55;23.20;98.80
38973;DHT22;25333;50.762;4.470;2023-08-20T09:09:21;23.30;99.40
38973;DHT22;25333;50.762;4.470;2023-08-20T09:11:48;23.40;99.10
38973;DHT22;25333;50.762;4.470;2023-08-20T09:14:30;23.60;99.10
38973;DHT22;25333;50.762;4.470;2023-08-20T09:17:02;23.70;98.30
38973;DHT22;25333;50.762;4.470;2023-08-20T09:19:29;23.80;97.20
38973;DHT22;25333;50.762;4.470;2023-08-20T09:22:01;23.60;97.20
38973;DHT22;25333;50.762;4.470;2023-08-20T09:24:39;23.60;98.30
38973;DHT22;25333;50.762;4.470;2023-08-20T09:27:05;23.50;97.80
38973;DHT22;25333;50.762;4.470;2023-08-20T09:29:56;23.50;98.20
38973;DHT22;25333;50.762;4.470;2023-08-20T09:32:26;23.80;98.60
38973;DHT22;25333;50.762;4.470;2023-08-20T09:34:57;23.90;97.20
38973;DHT22;25333;50.762;4.470;2023-08-20T09:37:25;23.70;96.80
38973;DHT22;25333;50.762;4.470;2023-08-20T09:39:54;23.80;96.80
38973;DHT22;25333;50.762;4.470;2023-08-20T09:42:19;23.80;97.40
38973;DHT22;25333;50.762;4.470;2023-08-20T09:44:46;24.10;97.30
38973;DHT22;25333;50.762;4.470;2023-08-20T09:47:15;24.40;96.80
38973;DHT22;25333;50.762;4.470;2023-08-20T09:49:46;24.30;96.40
38973;DHT22;25333;50.762;4.470;2023-08-20T09:52:16;24.40;97.70
38973;DHT22;25333;50.762;4.470;2023-08-20T09:57:43;25.10;96.70
38973;DHT22;25333;50.762;4.470;2023-08-20T10:00:11;25.40;97.00
38973;DHT22;25333;50.762;4.470;2023-08-20T10:02:38;25.60;96.40
38973;DHT22;25333;50.762;4.470;2023-08-20T10:05:05;25.80;97.10
38973;DHT22;25333;50.762;4.470;2023-08-20T10:07:32;26.00;96.10
38973;DHT22;25333;50.762;4.470;2023-08-20T10:10:01;26.10;95.60
38973;DHT22;25333;50.762;4.470;2023-08-20T10:12:28;26.20;96.80
38973;DHT22;25333;50.762;4.470;2023-08-20T10:14:58;26.50;96.30
38973;DHT22;25333;50.762;4.470;2023-08-20T10:20:41;26.60;95.10
38973;DHT22;25333;50.762;4.470;2023-08-20T10:23:07;26.50;96.10
38973;DHT22;25333;50.762;4.470;2023-08-20T10:28:26;27.00;95.90
38973;DHT22;25333;50.762;4.470;2023-08-20T10:31:11;27.20;95.80
38973;DHT22;25333;50.762;4.470;2023-08-20T10:36:17;27.70;95.20
38973;DHT22;25333;50.762;4.470;2023-08-20T10:38:48;27.70;94.30
38973;DHT22;25333;50.762;4.470;2023-08-20T10:41:15;27.70;94.40
38973;DHT22;25333;50.762;4.470;2023-08-20T10:44:04;28.00;94.90
38973;DHT22;25333;50.762;4.470;2023-08-20T10:47:08;28.10;94.30
38973;DHT22;25333;50.762;4.470;2023-08-20T10:49:43;28.10;94.90
38973;DHT22;25333;50.762;4.470;2023-08-20T10:52:09;28.20;94.20
38973;DHT22;25333;50.762;4.470;2023-08-20T10:54:35;28.30;95.00
38973;DHT22;25333;50.762;4.470;2023-08-20T10:57:01;28.20;94.90
38973;DHT22;25333;50.762;4.470;2023-08-20T10:59:28;28.20;93.80
38973;DHT22;25333;50.762;4.470;2023-08-20T11:02:00;28.20;94.70
38973;DHT22;25333;50.762;4.470;2023-08-20T11:04:31;28.20;94.40
38973;DHT22;25333;50.762;4.470;2023-08-20T11:06:58;28.20;94.30
38973;DHT22;25333;50.762;4.470;2023-08-20T11:09:26;28.30;94.00
38973;DHT22;25333;50.762;4.470;2023-08-20T11:11:53;28.20;94.50
38973;DHT22;25333;50.762;4.470;2023-08-20T11:14:19;28.30;93.90
38973;DHT22;25333;50.762;4.470;2023-08-20T11:16:46;28.40;93.80
38973;DHT22;25333;50.762;4.470;2023-08-20T11:22:46;28.40;93.70
38973;DHT22;25333;50.762;4.470;2023-08-20T11:25:12;28.20;93.50
38973;DHT22;25333;50.762;4.470;2023-08-20T11:27:42;28.50;93.70
38973;DHT22;25333;50.762;4.470;2023-08-20T11:30:09;28.70;93.90
38973;DHT22;25333;50.762;4.470;2023-08-20T11:32:38;28.80;93.50
38973;DHT22;25333;50.762;4.470;2023-08-20T11:35:05;28.90;93.90
38973;DHT22;25333;50.762;4.470;2023-08-20T11:37:33;29.10;93.50
38973;DHT22;25333;50.762;4.470;2023-08-20T11:40:22;29.00;92.90
38973;DHT22;25333;50.762;4.470;2023-08-20T11:42:48;28.70;92.00
38973;DHT22;25333;50.762;4.470;2023-08-20T11:45:14;28.70;93.10
38973;DHT22;25333;50.762;4.470;2023-08-20T11:48:01;29.00;93.00
38973;DHT22;25333;50.762;4.470;2023-08-20T11:50:35;29.00;92.60
38973;DHT22;25333;50.762;4.470;2023-08-20T11:53:03;28.60;91.90
38973;DHT22;25333;50.762;4.470;2023-08-20T11:57:54;28.90;92.80
38973;DHT22;25333;50.762;4.470;2023-08-20T12:03:46;29.00;92.60
38973;DHT22;25333;50.762;4.470;2023-08-20T12:06:22;28.60;92.70
38973;DHT22;25333;50.762;4.470;2023-08-20T12:12:25;28.70;92.70
38973;DHT22;25333;50.762;4.470;2023-08-20T12:14:50;28.80;93.60
38973;DHT22;25333;50.762;4.470;2023-08-20T12:17:19;29.00;93.50
38973;DHT22;25333;50.762;4.470;2023-08-20T12:19:45;29.10;92.90
38973;DHT22;25333;50.762;4.470;2023-08-20T12:22:11;28.90;92.50
38973;DHT22;25333;50.762;4.470;2023-08-20T12:24:38;28.80;92.70
38973;DHT22;25333;50.762;4.470;2023-08-20T12:27:03;28.70;92.80
38973;DHT22;25333;50.762;4.470;2023-08-20T12:29:29;28.80;93.60
38973;DHT22;25333;50.762;4.470;2023-08-20T12:32:04;28.70;92.90
38973;DHT22;25333;50.762;4.470;2023-08-20T12:34:35;28.70;92.40
38973;DHT22;25333;50.762;4.470;2023-08-20T12:37:05;28.70;93.00
38973;DHT22;25333;50.762;4.470;2023-08-20T12:39:36;28.60;92.70
38973;DHT22;25333;50.762;4.470;2023-08-20T12:42:02;28.30;92.80
38973;DHT22;25333;50.762;4.470;2023-08-20T12:44:36;28.30;93.20
38973;DHT22;25333;50.762;4.470;2023-08-20T12:47:02;28.20;93.10
38973;DHT22;25333;50.762;4.470;2023-08-20T12:49:27;28.10;94.00
38973;DHT22;25333;50.762;4.470;2023-08-20T12:51:53;27.90;94.60
38973;DHT22;25333;50.762;4.470;2023-08-20T12:54:26;27.90;94.10
38973;DHT22;25333;50.762;4.470;2023-08-20T12:56:54;27.70;93.80
38973;DHT22;25333;50.762;4.470;2023-08-20T12:59:20;27.20;93.50
38973;DHT22;25333;50.762;4.470;2023-08-20T13:01:46;27.30;93.40
38973;DHT22;25333;50.762;4.470;2023-08-20T13:04:13;27.50;94.70
38973;DHT22;25333;50.762;4.470;2023-08-20T13:06:39;27.80;94.10
38973;DHT22;25333;50.762;4.470;2023-08-20T13:09:05;28.10;93.50
38973;DHT22;25333;50.762;4.470;2023-08-20T13:11:35;28.30;93.30
38973;DHT22;25333;50.762;4.470;2023-08-20T13:14:01;28.20;93.30
38973;DHT22;25333;50.762;4.470;2023-08-20T13:16:37;28.10;93.20
38973;DHT22;25333;50.762;4.470;2023-08-20T13:19:15;28.20;94.30
38973;DHT22;25333;50.762;4.470;2023-08-20T13:22:05;28.20;94.70
38973;DHT22;25333;50.762;4.470;2023-08-20T13:24:39;28.30;93.90
38973;DHT22;25333;50.762;4.470;2023-08-20T13:27:42;28.40;93.90
38973;DHT22;25333;50.762;4.470;2023-08-20T13:30:10;28.30;93.60
38973;DHT22;25333;50.762;4.470;2023-08-20T13:32:36;28.00;93.60
38973;DHT22;25333;50.762;4.470;2023-08-20T13:35:05;28.00;93.90
38973;DHT22;25333;50.762;4.470;2023-08-20T13:37:37;27.90;94.80
38973;DHT22;25333;50.762;4.470;2023-08-20T13:40:03;28.00;95.30
38973;DHT22;25333;50.762;4.470;2023-08-20T13:42:29;28.10;95.20
38973;DHT22;25333;50.762;4.470;2023-08-20T13:44:55;28.10;93.80
38973;DHT22;25333;50.762;4.470;2023-08-20T13:47:21;27.90;94.00
38973;DHT22;25333;50.762;4.470;2023-08-20T13:49:46;28.00;93.80
38973;DHT22;25333;50.762;4.470;2023-08-20T13:52:12;28.00;95.00
38973;DHT22;25333;50.762;4.470;2023-08-20T13:54:38;28.00;93.00
38973;DHT22;25333;50.762;4.470;2023-08-20T13:57:06;28.00;93.40
38973;DHT22;25333;50.762;4.470;2023-08-20T13:59:34;28.00;92.80
38973;DHT22;25333;50.762;4.470;2023-08-20T14:02:03;27.70;93.10
38973;DHT22;25333;50.762;4.470;2023-08-20T14:04:28;27.70;93.80
38973;DHT22;25333;50.762;4.470;2023-08-20T14:06:57;27.80;94.20
38973;DHT22;25333;50.762;4.470;2023-08-20T14:09:22;27.90;94.80
38973;DHT22;25333;50.762;4.470;2023-08-20T14:11:53;27.90;93.50
38973;DHT22;25333;50.762;4.470;2023-08-20T14:14:21;27.90;94.60
38973;DHT22;25333;50.762;4.470;2023-08-20T14:16:47;28.00;94.70
38973;DHT22;25333;50.762;4.470;2023-08-20T14:19:17;28.10;93.80
38973;DHT22;25333;50.762;4.470;2023-08-20T14:21:43;28.00;93.00
38973;DHT22;25333;50.762;4.470;2023-08-20T14:24:09;28.00;94.20
38973;DHT22;25333;50.762;4.470;2023-08-20T14:26:37;27.80;94.20
38973;DHT22;25333;50.762;4.470;2023-08-20T14:29:03;27.70;93.90
38973;DHT22;25333;50.762;4.470;2023-08-20T14:31:36;27.80;95.00
38973;DHT22;25333;50.762;4.470;2023-08-20T14:34:09;27.60;93.90
38973;DHT22;25333;50.762;4.470;2023-08-20T14:36:36;27.50;94.30
38973;DHT22;25333;50.762;4.470;2023-08-20T14:42:17;27.60;94.20
38973;DHT22;25333;50.762;4.470;2023-08-20T14:44:55;27.60;94.40
38973;DHT22;25333;50.762;4.470;2023-08-20T14:47:33;27.60;93.90
38973;DHT22;25333;50.762;4.470;2023-08-20T14:53:26;27.50;94.60
38973;DHT22;25333;50.762;4.470;2023-08-20T14:55:59;27.30;93.70
38973;DHT22;25333;50.762;4.470;2023-08-20T14:58:32;27.20;94.00
38973;DHT22;25333;50.762;4.470;2023-08-20T15:01:00;27.20;94.40
38973;DHT22;25333;50.762;4.470;2023-08-20T15:03:33;27.40;94.50
38973;DHT22;25333;50.762;4.470;2023-08-20T15:05:59;27.50;94.80
38973;DHT22;25333;50.762;4.470;2023-08-20T15:08:25;27.50;95.30
38973;DHT22;25333;50.762;4.470;2023-08-20T15:10:58;27.30;95.90
38973;DHT22;25333;50.762;4.470;2023-08-20T15:13:24;27.30;97.00
38973;DHT22;25333;50.762;4.470;2023-08-20T15:15:56;27.20;97.50
38973;DHT22;25333;50.762;4.470;2023-08-20T15:18:24;27.20;97.00
38973;DHT22;25333;50.762;4.470;2023-08-20T15:20:58;27.30;97.50
38973;DHT22;25333;50.762;4.470;2023-08-20T15:23:24;27.30;97.40
38973;DHT22;25333;50.762;4.470;2023-08-20T15:25:55;27.20;97.70
38973;DHT22;25333;50.762;4.470;2023-08-20T15:28:22;27.20;98.40
38973;DHT22;25333;50.762;4.470;2023-08-20T15:30:50;27.20;98.20
38973;DHT22;25333;50.762;4.470;2023-08-20T15:33:17;27.20;98.60
38973;DHT22;25333;50.762;4.470;2023-08-20T15:35:42;27.10;98.80
38973;DHT22;25333;50.762;4.470;2023-08-20T15:38:09;27.00;99.00
38973;DHT22;25333;50.762;4.470;2023-08-20T15:40:35;27.00;99.30
38973;DHT22;25333;50.762;4.470;2023-08-20T15:43:01;27.00;99.60
38973;DHT22;25333;50.762;4.470;2023-08-20T15:45:27;27.00;99.40
38973;DHT22;25333;50.762;4.470;2023-08-20T15:47:52;26.90;99.10
38973;DHT22;25333;50.762;4.470;2023-08-20T15:50:19;26.90;98.60
38973;DHT22;25333;50.762;4.470;2023-08-20T15:52:45;27.00;99.00
38973;DHT22;25333;50.762;4.470;2023-08-20T15:55:12;27.10;99.10
38973;DHT22;25333;50.762;4.470;2023-08-20T15:57:37;27.10;99.00
38973;DHT22;25333;50.762;4.470;2023-08-20T16:00:04;26.90;98.30
38973;DHT22;25333;50.762;4.470;2023-08-20T16:02:29;27.00;98.10
38973;DHT22;25333;50.762;4.470;2023-08-20T16:04:55;26.90;97.70
38973;DHT22;25333;50.762;4.470;2023-08-20T16:07:21;26.90;97.70
38973;DHT22;25333;50.762;4.470;2023-08-20T16:09:46;26.80;98.20